sensor_id;sensor_type;location;lat;lon;timestamp;pressure;altitude;pressure_sealevel;temperature;humidity
56070;BME280;41944;52.078;-0.058;2023-11-21T00:00:43;101149.64;;;12.14;100.00
56070;BME280;41944;52.078;-0.058;2023-11-21T00:03:10;101151.34;;;12.11;100.00
56070;BME280;41944;52.078;-0.058;2023-11-21T00:05:37;101154.08;;;12.08;100.00
56070;BME280;41944;52.078;-0.058;2023-11-21T00:08:05;101156.19;;;12.02;100.00
56070;BME280;41944;52.078;-0.058;2023-11-21T00:10:31;101163.23;;;12.15;100.00
56070;BME280;41944;52.078;-0.058;2023-11-21T00:12:59;101165.40;;;11.98;100.00
56070;BME280;41944;52.078;-0.058;2023-11-21T00:15:26;101172.41;;;12.01;100.00
56070;BME280;41944;52.078;-0.058;2023-11-21T00:17:53;101171.97;;;11.78;100.00
56070;BME280;41944;52.078;-0.058;2023-11-21T00:20:20;101174.30;;;11.84;100.00
56070;BME280;41944;52.078;-0.058;2023-11-21T00:22:48;101173.14;;;12.03;100.00
56070;BME280;41944;52.078;-0.058;2023-11-21T00:25:15;101173.30;;;12.09;100.00
56070;BME280;41944;52.078;-0.058;2023-11-21T00:27:42;101175.38;;;12.11;100.00
56070;BME280;41944;52.078;-0.058;2023-11-21T00:30:10;101179.75;;;12.15;100.00
56070;BME280;41944;52.078;-0.058;2023-11-21T00:32:38;101187.05;;;11.94;100.00
56070;BME280;41944;52.078;-0.058;2023-11-21T00:35:06;101186.67;;;11.88;100.00
56070;BME280;41944;52.078;-0.058;2023-11-21T00:37:33;101188.34;;;12.05;100.00
56070;BME280;41944;52.078;-0.058;2023-11-21T00:40:00;101196.60;;;12.19;100.00
56070;BME280;41944;52.078;-0.058;2023-11-21T00:42:27;101199.25;;;12.10;100.00
56070;BME280;41944;52.078;-0.058;2023-11-21T00:44:54;101201.63;;;12.06;100.00
56070;BME280;41944;52.078;-0.058;2023-11-21T00:47:20;101203.96;;;12.16;100.00
56070;BME280;41944;52.078;-0.058;2023-11-21T00:49:47;101207.04;;;12.00;100.00
56070;BME280;41944;52.078;-0.058;2023-11-21T00:52:14;101212.89;;;12.05;100.00
56070;BME280;41944;52.078;-0.058;2023-11-21T00:54:41;101215.15;;;12.06;100.00
56070;BME280;41944;52.078;-0.058;2023-11-21T00:57:08;101215.45;;;12.11;100.00
56070;BME280;41944;52.078;-0.058;2023-11-21T00:59:36;101219.64;;;12.12;100.00
56070;BME280;41944;52.078;-0.058;2023-11-21T01:02:04;101218.62;;;12.12;100.00
56070;BME280;41944;52.078;-0.058;2023-11-21T01:04:31;101218.88;;;12.15;100.00
56070;BME280;41944;52.078;-0.058;2023-11-21T01:06:58;101228.44;;;12.12;100.00
56070;BME280;41944;52.078;-0.058;2023-11-21T01:09:25;101228.55;;;12.27;100.00
56070;BME280;41944;52.078;-0.058;2023-11-21T01:11:52;101226.78;;;12.14;100.00
56070;BME280;41944;52.078;-0.058;2023-11-21T01:14:19;101230.34;;;12.02;100.00
56070;BME280;41944;52.078;-0.058;2023-11-21T01:16:47;101230.03;;;12.17;100.00
56070;BME280;41944;52.078;-0.058;2023-11-21T01:19:14;101232.44;;;12.26;100.00
56070;BME280;41944;52.078;-0.058;2023-11-21T01:21:41;101237.63;;;12.30;100.00
56070;BME280;41944;52.078;-0.058;2023-11-21T01:24:08;101238.85;;;12.30;100.00
56070;BME280;41944;52.078;-0.058;2023-11-21T01:26:35;101238.74;;;12.26;100.00
56070;BME280;41944;52.078;-0.058;2023-11-21T01:29:03;101236.06;;;12.27;100.00
56070;BME280;41944;52.078;-0.058;2023-11-21T01:31:30;101239.39;;;12.24;100.00
56070;BME280;41944;52.078;-0.058;2023-11-21T01:33:57;101242.73;;;12.17;100.00
56070;BME280;41944;52.078;-0.058;2023-11-21T01:36:30;101246.28;;;12.16;100.00
56070;BME280;41944;52.078;-0.058;2023-11-21T01:38:57;101255.88;;;12.14;100.00
56070;BME280;41944;52.078;-0.058;2023-11-21T01:41:24;101261.43;;;12.29;100.00
56070;BME280;41944;52.078;-0.058;2023-11-21T01:43:51;101269.27;;;12.38;100.00
56070;BME280;41944;52.078;-0.058;2023-11-21T01:46:18;101275.87;;;12.37;100.00
56070;BME280;41944;52.078;-0.058;2023-11-21T01:48:46;101271.09;;;12.25;100.00
56070;BME280;41944;52.078;-0.058;2023-11-21T01:51:15;101277.75;;;12.08;100.00
56070;BME280;41944;52.078;-0.058;2023-11-21T01:53:42;101282.04;;;12.20;100.00
56070;BME280;41944;52.078;-0.058;2023-11-21T01:56:10;101283.56;;;12.21;100.00
56070;BME280;41944;52.078;-0.058;2023-11-21T01:58:37;101287.22;;;12.29;100.00
56070;BME280;41944;52.078;-0.058;2023-11-21T02:01:04;101293.11;;;12.34;100.00
56070;BME280;41944;52.078;-0.058;2023-11-21T02:03:31;101298.96;;;12.42;100.00
56070;BME280;41944;52.078;-0.058;2023-11-21T02:05:58;101302.27;;;12.23;100.00
56070;BME280;41944;52.078;-0.058;2023-11-21T02:08:25;101303.86;;;12.19;100.00
56070;BME280;41944;52.078;-0.058;2023-11-21T02:10:52;101304.25;;;12.05;100.00
56070;BME280;41944;52.078;-0.058;2023-11-21T02:13:19;101307.31;;;12.06;100.00
56070;BME280;41944;52.078;-0.058;2023-11-21T02:15:46;101310.77;;;12.07;100.00
56070;BME280;41944;52.078;-0.058;2023-11-21T02:18:14;101316.70;;;12.14;100.00
56070;BME280;41944;52.078;-0.058;2023-11-21T02:20:41;101321.81;;;12.15;100.00
56070;BME280;41944;52.078;-0.058;2023-11-21T02:23:08;101324.41;;;12.00;100.00
56070;BME280;41944;52.078;-0.058;2023-11-21T02:25:35;101326.37;;;12.02;100.00
56070;BME280;41944;52.078;-0.058;2023-11-21T02:28:03;101332.18;;;12.12;100.00
56070;BME280;41944;52.078;-0.058;2023-11-21T02:30:31;101335.99;;;12.09;100.00
56070;BME280;41944;52.078;-0.058;2023-11-21T02:32:58;101337.23;;;12.17;100.00
56070;BME280;41944;52.078;-0.058;2023-11-21T02:35:25;101343.72;;;12.11;100.00
56070;BME280;41944;52.078;-0.058;2023-11-21T02:37:52;101353.27;;;11.96;100.00
56070;BME280;41944;52.078;-0.058;2023-11-21T02:40:20;101353.13;;;11.89;100.00
56070;BME280;41944;52.078;-0.058;2023-11-21T02:42:48;101353.00;;;11.98;100.00
56070;BME280;41944;52.078;-0.058;2023-11-21T02:45:15;101351.42;;;11.99;100.00
56070;BME280;41944;52.078;-0.058;2023-11-21T02:47:42;101358.87;;;12.01;100.00
56070;BME280;41944;52.078;-0.058;2023-11-21T02:50:10;101360.51;;;11.99;100.00
56070;BME280;41944;52.078;-0.058;2023-11-21T02:52:37;101360.01;;;11.85;100.00
56070;BME280;41944;52.078;-0.058;2023-11-21T02:55:05;101363.49;;;11.91;100.00
56070;BME280;41944;52.078;-0.058;2023-11-21T02:57:33;101366.53;;;11.93;100.00
56070;BME280;41944;52.078;-0.058;2023-11-21T03:00:00;101370.40;;;12.00;100.00
56070;BME280;41944;52.078;-0.058;2023-11-21T03:02:28;101369.78;;;12.04;100.00
56070;BME280;41944;52.078;-0.058;2023-11-21T03:04:55;101375.62;;;12.06;100.00
56070;BME280;41944;52.078;-0.058;2023-11-21T03:07:21;101376.30;;;11.91;100.00
56070;BME280;41944;52.078;-0.058;2023-11-21T03:09:48;101380.52;;;12.00;100.00
56070;BME280;41944;52.078;-0.058;2023-11-21T03:12:15;101382.38;;;12.03;100.00
56070;BME280;41944;52.078;-0.058;2023-11-21T03:14:42;101384.81;;;11.89;100.00
56070;BME280;41944;52.078;-0.058;2023-11-21T03:17:09;101388.27;;;12.05;100.00
56070;BME280;41944;52.078;-0.058;2023-11-21T03:19:36;101395.01;;;12.11;100.00
56070;BME280;41944;52.078;-0.058;2023-11-21T03:22:03;101390.74;;;12.16;100.00
56070;BME280;41944;52.078;-0.058;2023-11-21T03:24:31;101398.52;;;12.02;100.00
56070;BME280;41944;52.078;-0.058;2023-11-21T03:26:58;101396.45;;;11.92;100.00
56070;BME280;41944;52.078;-0.058;2023-11-21T03:29:25;101401.06;;;11.88;100.00
56070;BME280;41944;52.078;-0.058;2023-11-21T03:31:52;101410.76;;;11.90;100.00
56070;BME280;41944;52.078;-0.058;2023-11-21T03:34:24;101397.97;;;11.97;100.00
56070;BME280;41944;52.078;-0.058;2023-11-21T03:36:52;101410.80;;;11.84;100.00
56070;BME280;41944;52.078;-0.058;2023-11-21T03:39:20;101414.11;;;11.77;100.00
56070;BME280;41944;52.078;-0.058;2023-11-21T03:41:47;101425.51;;;11.64;100.00
56070;BME280;41944;52.078;-0.058;2023-11-21T03:44:14;101429.39;;;11.63;100.00
56070;BME280;41944;52.078;-0.058;2023-11-21T03:46:42;101428.27;;;11.60;100.00
56070;BME280;41944;52.078;-0.058;2023-11-21T03:49:09;101435.20;;;11.46;100.00
56070;BME280;41944;52.078;-0.058;2023-11-21T03:51:36;101432.87;;;11.48;100.00
56070;BME280;41944;52.078;-0.058;2023-11-21T03:54:03;101439.99;;;11.42;100.00
56070;BME280;41944;52.078;-0.058;2023-11-21T03:56:31;101441.83;;;11.57;100.00
56070;BME280;41944;52.078;-0.058;2023-11-21T03:58:58;101446.01;;;11.44;100.00
56070;BME280;41944;52.078;-0.058;2023-11-21T04:01:25;101452.27;;;11.39;100.00
56070;BME280;41944;52.078;-0.058;2023-11-21T04:03:52;101452.04;;;11.40;100.00
56070;BME280;41944;52.078;-0.058;2023-11-21T04:06:20;101458.41;;;11.26;100.00
56070;BME280;41944;52.078;-0.058;2023-11-21T04:08:47;101457.70;;;11.35;100.00
56070;BME280;41944;52.078;-0.058;2023-11-21T04:11:14;101471.17;;;11.45;100.00
56070;BME280;41944;52.078;-0.058;2023-11-21T04:13:41;101475.77;;;11.32;100.00
56070;BME280;41944;52.078;-0.058;2023-11-21T04:16:09;101484.36;;;11.30;100.00
56070;BME280;41944;52.078;-0.058;2023-11-21T04:18:36;101488.07;;;11.35;100.00
56070;BME280;41944;52.078;-0.058;2023-11-21T04:21:05;101485.23;;;11.21;100.00
56070;BME280;41944;52.078;-0.058;2023-11-21T04:23:32;101484.50;;;11.20;100.00
56070;BME280;41944;52.078;-0.058;2023-11-21T04:25:59;101489.76;;;11.19;100.00
56070;BME280;41944;52.078;-0.058;2023-11-21T04:28:26;101494.99;;;11.05;100.00
56070;BME280;41944;52.078;-0.058;2023-11-21T04:30:53;101498.49;;;11.12;100.00
56070;BME280;41944;52.078;-0.058;2023-11-21T04:33:20;101497.02;;;11.01;100.00
56070;BME280;41944;52.078;-0.058;2023-11-21T04:35:47;101501.07;;;11.17;100.00
56070;BME280;41944;52.078;-0.058;2023-11-21T04:38:14;101505.25;;;11.15;100.00
56070;BME280;41944;52.078;-0.058;2023-11-21T04:40:42;101510.24;;;11.22;100.00
56070;BME280;41944;52.078;-0.058;2023-11-21T04:43:09;101509.46;;;11.28;100.00
56070;BME280;41944;52.078;-0.058;2023-11-21T04:45:36;101515.90;;;11.29;100.00
56070;BME280;41944;52.078;-0.058;2023-11-21T04:48:03;101520.62;;;11.25;100.00
56070;BME280;41944;52.078;-0.058;2023-11-21T04:50:31;101520.21;;;11.31;100.00
56070;BME280;41944;52.078;-0.058;2023-11-21T04:52:58;101519.13;;;11.40;100.00
56070;BME280;41944;52.078;-0.058;2023-11-21T04:55:24;101521.77;;;11.51;100.00
56070;BME280;41944;52.078;-0.058;2023-11-21T04:57:52;101516.33;;;11.28;100.00
56070;BME280;41944;52.078;-0.058;2023-11-21T05:00:18;101514.08;;;11.16;100.00
56070;BME280;41944;52.078;-0.058;2023-11-21T05:02:45;101519.56;;;11.24;100.00
56070;BME280;41944;52.078;-0.058;2023-11-21T05:05:13;101522.27;;;11.14;100.00
56070;BME280;41944;52.078;-0.058;2023-11-21T05:07:40;101529.94;;;11.13;100.00
56070;BME280;41944;52.078;-0.058;2023-11-21T05:10:08;101530.87;;;10.95;100.00
56070;BME280;41944;52.078;-0.058;2023-11-21T05:12:35;101533.56;;;11.04;100.00
56070;BME280;41944;52.078;-0.058;2023-11-21T05:15:04;101535.99;;;11.11;100.00
56070;BME280;41944;52.078;-0.058;2023-11-21T05:17:32;101534.61;;;11.15;100.00
56070;BME280;41944;52.078;-0.058;2023-11-21T05:20:00;101534.02;;;11.06;100.00
56070;BME280;41944;52.078;-0.058;2023-11-21T05:22:26;101536.50;;;11.18;100.00
56070;BME280;41944;52.078;-0.058;2023-11-21T05:24:53;101538.17;;;11.18;100.00
56070;BME280;41944;52.078;-0.058;2023-11-21T05:27:20;101543.17;;;11.23;100.00
56070;BME280;41944;52.078;-0.058;2023-11-21T05:29:47;101548.92;;;11.21;100.00
56070;BME280;41944;52.078;-0.058;2023-11-21T05:32:14;101558.65;;;11.27;100.00
56070;BME280;41944;52.078;-0.058;2023-11-21T05:34:42;101569.73;;;11.18;100.00
56070;BME280;41944;52.078;-0.058;2023-11-21T05:37:09;101578.17;;;11.11;100.00
56070;BME280;41944;52.078;-0.058;2023-11-21T05:39:36;101575.94;;;11.12;100.00
56070;BME280;41944;52.078;-0.058;2023-11-21T05:42:04;101581.11;;;11.09;100.00
56070;BME280;41944;52.078;-0.058;2023-11-21T05:44:31;101586.85;;;11.14;100.00
56070;BME280;41944;52.078;-0.058;2023-11-21T05:46:58;101594.02;;;11.17;100.00
56070;BME280;41944;52.078;-0.058;2023-11-21T05:49:25;101595.08;;;11.13;100.00
56070;BME280;41944;52.078;-0.058;2023-11-21T05:51:52;101604.04;;;11.23;99.19
56070;BME280;41944;52.078;-0.058;2023-11-21T05:54:19;101607.80;;;11.21;100.00
56070;BME280;41944;52.078;-0.058;2023-11-21T05:56:46;101616.10;;;11.23;98.27
56070;BME280;41944;52.078;-0.058;2023-11-21T05:59:13;101617.87;;;11.18;99.57
56070;BME280;41944;52.078;-0.058;2023-11-21T06:01:41;101628.07;;;11.03;98.75
56070;BME280;41944;52.078;-0.058;2023-11-21T06:04:08;101621.26;;;11.08;99.84
56070;BME280;41944;52.078;-0.058;2023-11-21T06:06:35;101626.37;;;11.04;100.00
56070;BME280;41944;52.078;-0.058;2023-11-21T06:09:02;101628.11;;;11.10;100.00
56070;BME280;41944;52.078;-0.058;2023-11-21T06:11:29;101631.55;;;11.02;100.00
56070;BME280;41944;52.078;-0.058;2023-11-21T06:13:56;101635.02;;;10.97;100.00
56070;BME280;41944;52.078;-0.058;2023-11-21T06:16:24;101635.49;;;10.82;100.00
56070;BME280;41944;52.078;-0.058;2023-11-21T06:18:51;101638.31;;;10.78;100.00
56070;BME280;41944;52.078;-0.058;2023-11-21T06:21:18;101637.05;;;10.67;100.00
56070;BME280;41944;52.078;-0.058;2023-11-21T06:23:45;101638.26;;;10.62;100.00
56070;BME280;41944;52.078;-0.058;2023-11-21T06:26:11;101644.86;;;10.68;100.00
56070;BME280;41944;52.078;-0.058;2023-11-21T06:28:38;101649.59;;;10.70;100.00
56070;BME280;41944;52.078;-0.058;2023-11-21T06:31:05;101648.07;;;10.70;100.00
56070;BME280;41944;52.078;-0.058;2023-11-21T06:33:32;101653.75;;;10.68;100.00
56070;BME280;41944;52.078;-0.058;2023-11-21T06:35:59;101650.45;;;10.60;100.00
56070;BME280;41944;52.078;-0.058;2023-11-21T06:38:27;101650.91;;;10.63;100.00
56070;BME280;41944;52.078;-0.058;2023-11-21T06:40:54;101650.88;;;10.71;100.00
56070;BME280;41944;52.078;-0.058;2023-11-21T06:43:21;101656.90;;;10.67;100.00
56070;BME280;41944;52.078;-0.058;2023-11-21T06:45:47;101662.66;;;10.79;100.00
56070;BME280;41944;52.078;-0.058;2023-11-21T06:48:15;101664.70;;;10.72;100.00
56070;BME280;41944;52.078;-0.058;2023-11-21T06:50:41;101669.99;;;10.77;100.00
56070;BME280;41944;52.078;-0.058;2023-11-21T06:53:09;101672.01;;;10.66;100.00
56070;BME280;41944;52.078;-0.058;2023-11-21T06:55:36;101675.09;;;10.72;100.00
56070;BME280;41944;52.078;-0.058;2023-11-21T06:58:03;101682.36;;;10.79;100.00
56070;BME280;41944;52.078;-0.058;2023-11-21T07:00:30;101682.87;;;10.78;100.00
56070;BME280;41944;52.078;-0.058;2023-11-21T07:02:57;101689.26;;;10.86;100.00
56070;BME280;41944;52.078;-0.058;2023-11-21T07:05:23;101690.68;;;10.86;100.00
56070;BME280;41944;52.078;-0.058;2023-11-21T07:07:50;101694.31;;;10.85;100.00
56070;BME280;41944;52.078;-0.058;2023-11-21T07:10:17;101698.19;;;11.03;100.00
56070;BME280;41944;52.078;-0.058;2023-11-21T07:12:44;101704.64;;;11.07;100.00
56070;BME280;41944;52.078;-0.058;2023-11-21T07:15:11;101705.48;;;10.91;100.00
56070;BME280;41944;52.078;-0.058;2023-11-21T07:17:38;101715.54;;;10.99;100.00
56070;BME280;41944;52.078;-0.058;2023-11-21T07:20:06;101719.04;;;11.06;100.00
56070;BME280;41944;52.078;-0.058;2023-11-21T07:22:33;101720.86;;;10.99;100.00
56070;BME280;41944;52.078;-0.058;2023-11-21T07:24:59;101724.11;;;10.93;100.00
56070;BME280;41944;52.078;-0.058;2023-11-21T07:27:26;101728.96;;;10.92;100.00
56070;BME280;41944;52.078;-0.058;2023-11-21T07:29:53;101733.25;;;11.01;100.00
56070;BME280;41944;52.078;-0.058;2023-11-21T07:32:20;101739.43;;;10.92;100.00
56070;BME280;41944;52.078;-0.058;2023-11-21T07:34:47;101741.85;;;10.98;100.00
56070;BME280;41944;52.078;-0.058;2023-11-21T07:37:14;101751.73;;;10.91;100.00
56070;BME280;41944;52.078;-0.058;2023-11-21T07:39:42;101757.77;;;10.84;100.00
56070;BME280;41944;52.078;-0.058;2023-11-21T07:42:09;101758.30;;;10.85;100.00
56070;BME280;41944;52.078;-0.058;2023-11-21T07:44:36;101759.02;;;10.68;100.00
56070;BME280;41944;52.078;-0.058;2023-11-21T07:47:03;101762.80;;;10.83;100.00
56070;BME280;41944;52.078;-0.058;2023-11-21T07:49:29;101765.37;;;10.80;100.00
56070;BME280;41944;52.078;-0.058;2023-11-21T07:51:56;101764.26;;;10.78;100.00
56070;BME280;41944;52.078;-0.058;2023-11-21T07:54:25;101766.55;;;10.87;100.00
56070;BME280;41944;52.078;-0.058;2023-11-21T07:56:53;101769.85;;;10.84;100.00
56070;BME280;41944;52.078;-0.058;2023-11-21T07:59:20;101773.73;;;10.90;100.00
56070;BME280;41944;52.078;-0.058;2023-11-21T08:01:48;101780.85;;;10.90;100.00
56070;BME280;41944;52.078;-0.058;2023-11-21T08:04:15;101788.03;;;10.65;100.00
56070;BME280;41944;52.078;-0.058;2023-11-21T08:06:42;101791.15;;;10.64;100.00
56070;BME280;41944;52.078;-0.058;2023-11-21T08:09:09;101793.59;;;10.69;100.00
56070;BME280;41944;52.078;-0.058;2023-11-21T08:11:36;101798.55;;;10.66;100.00
56070;BME280;41944;52.078;-0.058;2023-11-21T08:14:03;101801.43;;;10.69;100.00
56070;BME280;41944;52.078;-0.058;2023-11-21T08:16:30;101809.37;;;10.74;100.00
56070;BME280;41944;52.078;-0.058;2023-11-21T08:19:02;101812.11;;;10.80;100.00
56070;BME280;41944;52.078;-0.058;2023-11-21T08:21:29;101813.14;;;10.94;100.00
56070;BME280;41944;52.078;-0.058;2023-11-21T08:23:56;101816.27;;;10.88;100.00
56070;BME280;41944;52.078;-0.058;2023-11-21T08:26:23;101823.18;;;10.97;100.00
56070;BME280;41944;52.078;-0.058;2023-11-21T08:28:50;101827.91;;;11.00;100.00
56070;BME280;41944;52.078;-0.058;2023-11-21T08:32:06;101832.47;;;11.07;100.00
56070;BME280;41944;52.078;-0.058;2023-11-21T08:34:34;101832.94;;;11.08;100.00
56070;BME280;41944;52.078;-0.058;2023-11-21T08:37:08;101837.13;;;11.12;100.00
56070;BME280;41944;52.078;-0.058;2023-11-21T08:39:40;101844.05;;;11.16;100.00
56070;BME280;41944;52.078;-0.058;2023-11-21T08:42:07;101847.31;;;11.14;100.00
56070;BME280;41944;52.078;-0.058;2023-11-21T08:44:34;101848.57;;;11.15;100.00
56070;BME280;41944;52.078;-0.058;2023-11-21T08:47:01;101849.42;;;11.09;100.00
56070;BME280;41944;52.078;-0.058;2023-11-21T08:49:28;101855.79;;;11.24;100.00
56070;BME280;41944;52.078;-0.058;2023-11-21T08:51:56;101856.05;;;11.16;100.00
56070;BME280;41944;52.078;-0.058;2023-11-21T08:54:28;101864.45;;;11.07;100.00
56070;BME280;41944;52.078;-0.058;2023-11-21T08:56:55;101870.94;;;11.14;100.00
56070;BME280;41944;52.078;-0.058;2023-11-21T08:59:22;101874.63;;;11.14;100.00
56070;BME280;41944;52.078;-0.058;2023-11-21T09:01:49;101878.77;;;11.09;100.00
56070;BME280;41944;52.078;-0.058;2023-11-21T09:04:17;101883.70;;;11.14;100.00
56070;BME280;41944;52.078;-0.058;2023-11-21T09:06:44;101885.10;;;11.16;100.00
56070;BME280;41944;52.078;-0.058;2023-11-21T09:09:11;101887.46;;;11.26;100.00
56070;BME280;41944;52.078;-0.058;2023-11-21T09:11:38;101888.96;;;11.30;100.00
56070;BME280;41944;52.078;-0.058;2023-11-21T09:14:05;101891.23;;;11.20;100.00
56070;BME280;41944;52.078;-0.058;2023-11-21T09:16:32;101891.47;;;11.30;100.00
56070;BME280;41944;52.078;-0.058;2023-11-21T09:18:59;101894.66;;;11.12;100.00
56070;BME280;41944;52.078;-0.058;2023-11-21T09:21:26;101895.17;;;11.21;100.00
56070;BME280;41944;52.078;-0.058;2023-11-21T09:23:53;101899.47;;;11.14;100.00
56070;BME280;41944;52.078;-0.058;2023-11-21T09:26:20;101899.39;;;11.18;100.00
56070;BME280;41944;52.078;-0.058;2023-11-21T09:28:48;101897.95;;;11.29;100.00
56070;BME280;41944;52.078;-0.058;2023-11-21T09:31:15;101898.24;;;11.26;100.00
56070;BME280;41944;52.078;-0.058;2023-11-21T09:33:43;101898.29;;;11.36;100.00
56070;BME280;41944;52.078;-0.058;2023-11-21T09:36:12;101899.93;;;11.35;100.00
56070;BME280;41944;52.078;-0.058;2023-11-21T09:38:39;101902.38;;;11.20;100.00
56070;BME280;41944;52.078;-0.058;2023-11-21T09:41:13;101901.55;;;11.35;100.00
56070;BME280;41944;52.078;-0.058;2023-11-21T09:43:45;101903.58;;;11.40;100.00
56070;BME280;41944;52.078;-0.058;2023-11-21T09:46:15;101909.29;;;11.41;100.00
56070;BME280;41944;52.078;-0.058;2023-11-21T09:48:44;101907.28;;;11.45;100.00
56070;BME280;41944;52.078;-0.058;2023-11-21T09:51:11;101914.73;;;11.49;100.00
56070;BME280;41944;52.078;-0.058;2023-11-21T09:53:38;101917.11;;;11.56;100.00
56070;BME280;41944;52.078;-0.058;2023-11-21T09:56:09;101917.86;;;11.66;100.00
56070;BME280;41944;52.078;-0.058;2023-11-21T09:58:36;101922.20;;;11.34;100.00
56070;BME280;41944;52.078;-0.058;2023-11-21T10:01:04;101923.20;;;11.29;100.00
56070;BME280;41944;52.078;-0.058;2023-11-21T10:03:31;101933.24;;;11.37;100.00
56070;BME280;41944;52.078;-0.058;2023-11-21T10:06:03;101938.37;;;11.41;100.00
56070;BME280;41944;52.078;-0.058;2023-11-21T10:08:30;101943.38;;;11.48;100.00
56070;BME280;41944;52.078;-0.058;2023-11-21T10:10:59;101944.00;;;11.42;100.00
56070;BME280;41944;52.078;-0.058;2023-11-21T10:13:29;101945.20;;;11.54;100.00
56070;BME280;41944;52.078;-0.058;2023-11-21T10:15:57;101949.47;;;11.63;100.00
56070;BME280;41944;52.078;-0.058;2023-11-21T10:18:26;101954.25;;;11.73;100.00
56070;BME280;41944;52.078;-0.058;2023-11-21T10:20:53;101958.92;;;11.62;100.00
56070;BME280;41944;52.078;-0.058;2023-11-21T10:23:22;101959.38;;;11.66;100.00
56070;BME280;41944;52.078;-0.058;2023-11-21T10:25:49;101956.55;;;11.63;100.00
56070;BME280;41944;52.078;-0.058;2023-11-21T10:28:17;101961.81;;;11.60;100.00
56070;BME280;41944;52.078;-0.058;2023-11-21T10:30:44;101957.17;;;11.61;100.00
56070;BME280;41944;52.078;-0.058;2023-11-21T10:33:11;101966.62;;;11.46;100.00
56070;BME280;41944;52.078;-0.058;2023-11-21T10:35:42;101967.37;;;11.62;100.00
56070;BME280;41944;52.078;-0.058;2023-11-21T10:38:10;101980.93;;;11.66;100.00
56070;BME280;41944;52.078;-0.058;2023-11-21T10:40:38;101981.91;;;11.58;100.00
56070;BME280;41944;52.078;-0.058;2023-11-21T10:43:06;101981.68;;;11.57;100.00
56070;BME280;41944;52.078;-0.058;2023-11-21T10:45:33;101982.99;;;11.60;100.00
56070;BME280;41944;52.078;-0.058;2023-11-21T10:48:00;101986.27;;;11.69;100.00
56070;BME280;41944;52.078;-0.058;2023-11-21T10:50:27;101975.99;;;11.77;100.00
56070;BME280;41944;52.078;-0.058;2023-11-21T10:52:54;101988.44;;;11.68;100.00
56070;BME280;41944;52.078;-0.058;2023-11-21T10:55:21;101993.81;;;11.72;100.00
56070;BME280;41944;52.078;-0.058;2023-11-21T10:57:51;101997.49;;;11.63;100.00
56070;BME280;41944;52.078;-0.058;2023-11-21T11:00:19;101998.42;;;11.88;100.00
56070;BME280;41944;52.078;-0.058;2023-11-21T11:02:50;102001.76;;;11.57;100.00
56070;BME280;41944;52.078;-0.058;2023-11-21T11:05:20;101999.14;;;11.81;100.00
56070;BME280;41944;52.078;-0.058;2023-11-21T11:07:49;102006.46;;;11.67;100.00
56070;BME280;41944;52.078;-0.058;2023-11-21T11:10:18;102008.85;;;11.86;100.00
56070;BME280;41944;52.078;-0.058;2023-11-21T11:12:46;102009.89;;;11.94;100.00
56070;BME280;41944;52.078;-0.058;2023-11-21T11:15:15;102006.31;;;11.96;100.00
56070;BME280;41944;52.078;-0.058;2023-11-21T11:17:42;102013.53;;;11.90;100.00
56070;BME280;41944;52.078;-0.058;2023-11-21T11:20:11;102016.86;;;11.92;100.00
56070;BME280;41944;52.078;-0.058;2023-11-21T11:22:44;102018.02;;;11.85;100.00
56070;BME280;41944;52.078;-0.058;2023-11-21T11:25:32;102021.79;;;11.70;100.00
56070;BME280;41944;52.078;-0.058;2023-11-21T11:28:06;102026.56;;;11.82;100.00
56070;BME280;41944;52.078;-0.058;2023-11-21T11:30:41;102028.96;;;11.69;100.00
56070;BME280;41944;52.078;-0.058;2023-11-21T11:33:21;102030.64;;;11.64;100.00
56070;BME280;41944;52.078;-0.058;2023-11-21T11:35:54;102033.76;;;11.34;100.00
56070;BME280;41944;52.078;-0.058;2023-11-21T11:38:23;102034.54;;;11.32;100.00
56070;BME280;41944;52.078;-0.058;2023-11-21T11:40:53;102045.40;;;11.30;100.00
56070;BME280;41944;52.078;-0.058;2023-11-21T11:43:25;102041.67;;;11.46;100.00
56070;BME280;41944;52.078;-0.058;2023-11-21T11:45:56;102049.79;;;11.47;100.00
56070;BME280;41944;52.078;-0.058;2023-11-21T11:48:23;102057.42;;;11.55;100.00
56070;BME280;41944;52.078;-0.058;2023-11-21T11:51:09;102050.97;;;11.57;100.00
56070;BME280;41944;52.078;-0.058;2023-11-21T11:53:38;102064.76;;;11.51;100.00
56070;BME280;41944;52.078;-0.058;2023-11-21T11:56:24;102069.30;;;11.03;100.00
56070;BME280;41944;52.078;-0.058;2023-11-21T11:58:54;102071.07;;;11.12;100.00
56070;BME280;41944;52.078;-0.058;2023-11-21T12:01:22;102081.11;;;11.00;100.00
56070;BME280;41944;52.078;-0.058;2023-11-21T12:04:56;102084.88;;;11.14;100.00
56070;BME280;41944;52.078;-0.058;2023-11-21T12:07:23;102092.14;;;11.17;100.00
56070;BME280;41944;52.078;-0.058;2023-11-21T12:09:50;102096.11;;;11.05;100.00
56070;BME280;41944;52.078;-0.058;2023-11-21T12:12:17;102102.43;;;11.12;100.00
56070;BME280;41944;52.078;-0.058;2023-11-21T12:14:44;102104.25;;;10.99;100.00
56070;BME280;41944;52.078;-0.058;2023-11-21T12:17:12;102102.46;;;10.94;100.00
56070;BME280;41944;52.078;-0.058;2023-11-21T12:19:39;102113.92;;;10.99;100.00
56070;BME280;41944;52.078;-0.058;2023-11-21T12:22:06;102116.03;;;10.96;100.00
56070;BME280;41944;52.078;-0.058;2023-11-21T12:24:33;102120.40;;;10.79;100.00
56070;BME280;41944;52.078;-0.058;2023-11-21T12:26:59;102125.39;;;10.74;100.00
56070;BME280;41944;52.078;-0.058;2023-11-21T12:29:26;102115.97;;;10.61;100.00
56070;BME280;41944;52.078;-0.058;2023-11-21T12:31:53;102127.17;;;10.64;100.00
56070;BME280;41944;52.078;-0.058;2023-11-21T12:34:20;102129.51;;;10.78;100.00